createdAt,value
2023-01-15T00:02:07.922Z,8.00
2023-01-15T00:04:35.182Z,8.00
2023-01-15T00:07:01.910Z,8.10
2023-01-15T00:09:28.679Z,8.10
2023-01-15T00:11:55.524Z,8.10
2023-01-15T00:14:22.451Z,8.10
2023-01-15T00:16:53.205Z,8.10
2023-01-15T00:19:20.269Z,8.10
2023-01-15T00:21:47.045Z,8.20
2023-01-15T00:24:31.999Z,8.20
2023-01-15T00:27:17.445Z,8.30
2023-01-15T00:29:44.461Z,8.30
2023-01-15T00:32:11.164Z,8.40
2023-01-15T00:34:37.970Z,8.40
2023-01-15T00:37:04.928Z,8.40
2023-01-15T00:39:31.689Z,8.50
2023-01-15T00:41:58.412Z,8.50
2023-01-15T00:44:25.176Z,8.60
2023-01-15T00:46:52.174Z,8.60
2023-01-15T00:49:19.081Z,8.70
2023-01-15T00:51:45.890Z,8.70
2023-01-15T00:54:12.633Z,8.80
2023-01-15T00:56:39.433Z,8.80
2023-01-15T00:59:06.305Z,8.90
2023-01-15T01:01:33.709Z,8.90
2023-01-15T01:04:01.250Z,8.90
2023-01-15T01:06:28.303Z,8.90
2023-01-15T01:08:55.819Z,8.90
2023-01-15T01:11:26.724Z,9.00
2023-01-15T01:13:55.126Z,9.00
2023-01-15T01:16:40.068Z,9.00
2023-01-15T01:19:14.972Z,9.00
2023-01-15T01:21:43.458Z,9.10
2023-01-15T01:24:21.260Z,9.10
2023-01-15T01:26:49.634Z,9.10
2023-01-15T01:29:22.489Z,9.20
2023-01-15T01:31:50.980Z,9.20
2023-01-15T01:34:23.826Z,9.20
2023-01-15T01:36:50.559Z,9.50
2023-01-15T01:39:19.460Z,9.20
2023-01-15T01:41:48.040Z,9.20
2023-01-15T01:44:32.869Z,9.30
2023-01-15T01:47:05.198Z,9.20
2023-01-15T01:49:32.145Z,9.20
2023-01-15T01:52:08.133Z,9.20
2023-01-15T01:54:38.241Z,9.30
2023-01-15T01:57:07.161Z,9.20
2023-01-15T01:59:35.238Z,9.20
2023-01-15T02:02:02.151Z,9.20
2023-01-15T02:04:30.440Z,9.30
2023-01-15T02:07:00.931Z,9.20
2023-01-15T02:09:27.749Z,9.20
2023-01-15T02:12:10.627Z,9.20
2023-01-15T02:15:03.513Z,9.20
2023-01-15T02:18:01.625Z,9.20
2023-01-15T02:20:40.168Z,9.20
2023-01-15T02:23:48.312Z,9.20
2023-01-15T02:26:58.257Z,9.20
2023-01-15T02:29:56.557Z,9.20
2023-01-15T02:32:40.540Z,9.20
2023-01-15T02:35:37.360Z,9.20
2023-01-15T02:38:11.127Z,9.20
2023-01-15T02:40:39.876Z,9.20
2023-01-15T02:43:08.270Z,9.20
2023-01-15T02:45:43.515Z,9.30
2023-01-15T02:48:16.200Z,9.30
2023-01-15T02:50:50.258Z,9.30
2023-01-15T02:53:24.795Z,9.30
2023-01-15T02:55:58.216Z,9.30
2023-01-15T02:58:32.269Z,9.30
2023-01-15T03:01:02.504Z,9.30
2023-01-15T03:03:47.550Z,9.30
2023-01-15T03:06:32.490Z,9.30
2023-01-15T03:08:59.709Z,9.40
2023-01-15T03:11:28.064Z,9.40
2023-01-15T03:14:37.403Z,9.40
2023-01-15T03:17:33.212Z,9.40
2023-01-15T03:20:16.954Z,9.40
2023-01-15T03:22:51.845Z,9.40
2023-01-15T03:25:25.405Z,9.40
2023-01-15T03:27:59.580Z,9.50
2023-01-15T03:30:26.916Z,9.50
2023-01-15T03:32:56.974Z,9.50
2023-01-15T03:35:58.547Z,9.50
2023-01-15T03:38:35.994Z,9.50
2023-01-15T03:41:31.946Z,9.50
2023-01-15T03:44:38.300Z,9.50
2023-01-15T03:47:59.803Z,9.50
2023-01-15T03:50:52.927Z,9.50
2023-01-15T03:53:33.980Z,9.60
2023-01-15T03:56:24.909Z,9.60
2023-01-15T03:59:33.407Z,9.60
2023-01-15T04:02:05.645Z,9.70
2023-01-15T04:04:33.814Z,9.70
2023-01-15T04:07:02.911Z,9.70
2023-01-15T04:09:30.850Z,9.80
2023-01-15T04:12:02.244Z,9.80
2023-01-15T04:14:31.179Z,9.90
2023-01-15T04:16:57.860Z,10.00
2023-01-15T04:19:25.037Z,10.00
2023-01-15T04:21:51.800Z,10.00
2023-01-15T04:24:18.579Z,10.00
2023-01-15T04:26:45.284Z,10.00
2023-01-15T04:29:12.061Z,10.00
2023-01-15T04:31:38.790Z,10.00
2023-01-15T04:34:05.565Z,10.00
2023-01-15T04:36:35.443Z,10.00
2023-01-15T04:39:05.965Z,10.00
2023-01-15T04:41:50.977Z,10.00
2023-01-15T04:44:17.832Z,10.00
2023-01-15T04:46:47.656Z,10.10
2023-01-15T04:49:17.944Z,10.10
2023-01-15T04:51:45.619Z,10.10
2023-01-15T04:54:15.431Z,10.00
2023-01-15T04:56:46.806Z,10.00
2023-01-15T04:59:15.929Z,10.00
2023-01-15T05:01:51.285Z,9.90
2023-01-15T05:04:25.500Z,9.90
2023-01-15T05:06:53.250Z,9.90
2023-01-15T05:09:20.030Z,9.90
2023-01-15T05:11:46.739Z,9.80
2023-01-15T05:14:13.508Z,9.80
2023-01-15T05:16:40.227Z,9.80
2023-01-15T05:19:10.420Z,9.70
2023-01-15T05:21:42.371Z,9.70
2023-01-15T05:24:16.988Z,9.70
2023-01-15T05:26:44.293Z,9.70
2023-01-15T05:29:12.040Z,9.70
2023-01-15T05:31:39.852Z,9.70
2023-01-15T05:34:06.629Z,9.70
2023-01-15T05:36:33.439Z,9.70
2023-01-15T05:39:01.994Z,9.80
2023-01-15T05:41:49.047Z,9.80
2023-01-15T05:44:25.952Z,9.90
2023-01-15T05:46:56.332Z,9.90
2023-01-15T05:49:27.544Z,9.90
2023-01-15T05:51:55.168Z,9.90
2023-01-15T05:54:26.314Z,10.20
2023-01-15T05:56:54.073Z,10.00
2023-01-15T05:59:25.415Z,10.00
2023-01-15T06:01:53.615Z,10.00
2023-01-15T06:04:21.776Z,10.10
2023-01-15T06:06:51.259Z,10.00
2023-01-15T06:09:19.392Z,10.00
2023-01-15T06:11:47.346Z,10.00
2023-01-15T06:14:14.444Z,10.00
2023-01-15T06:16:41.831Z,10.00
2023-01-15T06:19:11.437Z,10.00
2023-01-15T06:21:38.347Z,10.10
2023-01-15T06:24:05.940Z,10.10
2023-01-15T06:26:33.239Z,10.10
2023-01-15T06:29:00.008Z,10.00
2023-01-15T06:31:27.032Z,10.00
2023-01-15T06:33:54.135Z,9.90
2023-01-15T06:36:23.769Z,9.90
2023-01-15T06:38:51.385Z,9.80
2023-01-15T06:41:43.504Z,9.80
2023-01-15T06:44:34.995Z,9.80
2023-01-15T06:47:22.523Z,9.80
2023-01-15T06:49:56.352Z,9.80
2023-01-15T06:52:25.524Z,9.70
2023-01-15T06:54:53.235Z,9.60
2023-01-15T06:57:20.646Z,9.50
2023-01-15T06:59:49.573Z,9.40
2023-01-15T07:02:18.153Z,9.20
2023-01-15T07:04:46.114Z,9.10
2023-01-15T07:07:13.037Z,9.00
2023-01-15T07:09:39.778Z,8.90
2023-01-15T07:12:06.659Z,8.80
2023-01-15T07:14:33.454Z,8.60
2023-01-15T07:17:00.225Z,8.50
2023-01-15T07:19:27.599Z,8.40
2023-01-15T07:21:54.659Z,8.40
2023-01-15T07:24:22.011Z,8.30
2023-01-15T07:26:48.761Z,8.20
2023-01-15T07:29:15.703Z,8.20
2023-01-15T07:31:42.599Z,8.10
2023-01-15T07:34:10.140Z,8.00
2023-01-15T07:36:37.728Z,8.00
2023-01-15T07:39:06.014Z,8.00
2023-01-15T07:41:51.168Z,7.90
2023-01-15T07:44:36.610Z,7.90
2023-01-15T07:47:27.462Z,7.90
2023-01-15T07:49:55.562Z,7.90
2023-01-15T07:52:22.752Z,7.80
2023-01-15T07:54:50.532Z,7.80
2023-01-15T07:57:21.606Z,7.80
2023-01-15T07:59:49.554Z,7.80
2023-01-15T08:02:17.124Z,7.80
2023-01-15T08:04:44.696Z,8.00
2023-01-15T08:07:12.867Z,7.70
2023-01-15T08:09:39.780Z,7.70
2023-01-15T08:12:25.389Z,7.60
2023-01-15T08:15:10.682Z,7.60
2023-01-15T08:17:39.695Z,7.60
2023-01-15T08:20:24.668Z,7.50
2023-01-15T08:22:51.612Z,7.40
2023-01-15T08:25:22.500Z,7.40
2023-01-15T08:27:50.200Z,7.30
2023-01-15T08:30:21.316Z,7.20
2023-01-15T08:32:48.091Z,7.10
2023-01-15T08:35:15.208Z,7.10
2023-01-15T08:37:42.672Z,7.00
2023-01-15T08:40:11.594Z,6.80
2023-01-15T08:42:38.727Z,6.70
2023-01-15T08:45:06.367Z,6.60
2023-01-15T08:47:33.270Z,6.50
2023-01-15T08:50:00.124Z,6.40
2023-01-15T08:52:26.953Z,6.30
2023-01-15T08:54:53.667Z,6.30
2023-01-15T08:57:20.384Z,6.20
2023-01-15T08:59:47.807Z,6.10
2023-01-15T09:02:15.919Z,6.10
2023-01-15T09:04:42.813Z,6.00
2023-01-15T09:07:09.639Z,6.00
2023-01-15T09:09:36.377Z,6.00
2023-01-15T09:12:03.299Z,6.00
2023-01-15T09:15:00.550Z,6.00
2023-01-15T09:17:16.817Z,6.00
2023-01-15T09:19:43.556Z,6.00
2023-01-15T09:22:10.290Z,5.90
2023-01-15T09:24:37.228Z,6.00
2023-01-15T09:27:03.994Z,6.00
2023-01-15T09:29:30.763Z,6.00
2023-01-15T09:31:57.542Z,5.90
2023-01-15T09:34:24.264Z,6.00
2023-01-15T09:36:51.192Z,6.00
2023-01-15T09:39:17.943Z,6.00
2023-01-15T09:42:33.821Z,6.00
2023-01-15T09:45:35.992Z,5.90
2023-01-15T09:48:38.291Z,5.90
2023-01-15T09:51:16.939Z,5.90
2023-01-15T09:54:06.847Z,5.90
2023-01-15T09:56:37.256Z,5.90
2023-01-15T09:59:35.187Z,5.90
2023-01-15T10:02:27.795Z,5.90
2023-01-15T10:05:19.980Z,5.90
2023-01-15T10:08:39.953Z,6.00
2023-01-15T10:12:02.665Z,6.00
2023-01-15T10:15:02.480Z,6.00
2023-01-15T10:17:43.488Z,6.00
2023-01-15T10:20:49.859Z,5.90
2023-01-15T10:23:44.063Z,5.90
2023-01-15T10:26:29.369Z,5.80
2023-01-15T10:29:43.547Z,5.90
2023-01-15T10:32:21.914Z,5.80
2023-01-15T10:35:01.750Z,5.90
2023-01-15T10:38:01.368Z,5.80
2023-01-15T10:40:57.478Z,5.80
2023-01-15T10:43:47.859Z,5.80
2023-01-15T10:46:19.325Z,5.80
2023-01-15T10:48:57.040Z,5.80
2023-01-15T10:51:40.751Z,5.80
2023-01-15T10:54:34.328Z,5.80
2023-01-15T10:57:20.120Z,5.80
2023-01-15T10:59:57.641Z,5.70
2023-01-15T11:02:37.964Z,5.60
2023-01-15T11:05:05.663Z,5.50
2023-01-15T11:08:06.461Z,5.60
2023-01-15T11:10:32.958Z,5.60
2023-01-15T11:13:40.268Z,5.60
2023-01-15T11:16:44.025Z,5.60
2023-01-15T11:19:37.147Z,5.60
2023-01-15T11:22:22.139Z,5.60
2023-01-15T11:25:00.943Z,5.60
2023-01-15T11:27:32.759Z,5.60
2023-01-15T11:30:03.458Z,5.70
2023-01-15T11:32:33.631Z,5.70
2023-01-15T11:35:21.676Z,5.70
2023-01-15T11:37:48.386Z,5.70
2023-01-15T11:40:24.474Z,5.70
2023-01-15T11:43:10.586Z,5.60
2023-01-15T11:46:10.951Z,5.60
2023-01-15T11:49:07.523Z,5.60
2023-01-15T11:51:49.023Z,5.60
2023-01-15T11:54:16.358Z,5.60
2023-01-15T11:56:46.079Z,5.60
2023-01-15T11:59:18.739Z,5.60
2023-01-15T12:01:59.979Z,5.60
2023-01-15T12:04:55.556Z,5.60
2023-01-15T12:07:25.790Z,5.60
2023-01-15T12:10:44.517Z,5.60
2023-01-15T12:13:48.841Z,5.60
2023-01-15T12:16:48.281Z,5.60
2023-01-15T12:19:35.687Z,5.60
2023-01-15T12:22:23.043Z,5.60
2023-01-15T12:25:19.960Z,5.50
2023-01-15T12:28:15.099Z,5.50
2023-01-15T12:31:08.516Z,5.50
2023-01-15T12:34:16.560Z,5.50
2023-01-15T12:37:02.340Z,5.50
2023-01-15T12:39:40.169Z,5.40
2023-01-15T12:42:35.438Z,5.40
2023-01-15T12:45:31.399Z,5.40
2023-01-15T12:48:31.661Z,5.30
2023-01-15T12:51:04.442Z,5.30
2023-01-15T12:53:51.926Z,5.30
2023-01-15T12:57:02.844Z,5.30
2023-01-15T12:59:43.257Z,5.30
2023-01-15T13:02:24.022Z,5.30
2023-01-15T13:05:39.424Z,5.20
2023-01-15T13:08:16.153Z,5.20
2023-01-15T13:10:43.302Z,5.20
2023-01-15T13:13:25.874Z,5.10
2023-01-15T13:16:19.580Z,5.10
2023-01-15T13:19:10.014Z,5.10
2023-01-15T13:21:40.535Z,5.10
2023-01-15T13:24:32.541Z,5.10
2023-01-15T13:27:29.802Z,5.00
2023-01-15T13:30:36.164Z,5.00
2023-01-15T13:33:26.576Z,4.90
2023-01-15T13:36:22.662Z,4.90
2023-01-15T13:38:54.484Z,4.80
2023-01-15T13:41:48.815Z,4.80
2023-01-15T13:44:33.923Z,4.80
2023-01-15T13:47:10.971Z,4.80
2023-01-15T13:49:48.146Z,4.80
2023-01-15T13:52:28.534Z,4.70
2023-01-15T13:55:01.287Z,4.70
2023-01-15T13:57:42.924Z,4.70
2023-01-15T14:00:31.001Z,4.80
2023-01-15T14:03:23.249Z,4.80
2023-01-15T14:06:04.121Z,4.80
2023-01-15T14:09:00.112Z,4.80
2023-01-15T14:12:08.086Z,4.80
2023-01-15T14:15:21.595Z,4.80
2023-01-15T14:18:22.858Z,4.80
2023-01-15T14:21:40.611Z,4.80
2023-01-15T14:25:00.668Z,4.70
2023-01-15T14:37:17.863Z,4.50
2023-01-15T14:42:56.179Z,4.50
2023-01-15T14:48:28.181Z,4.40
2023-01-15T14:51:15.525Z,4.40
2023-01-15T14:54:18.278Z,4.40
2023-01-15T14:56:53.056Z,4.40
2023-01-15T14:59:31.250Z,4.30
2023-01-15T15:02:02.940Z,4.30
2023-01-15T15:04:48.971Z,4.30
2023-01-15T15:07:22.533Z,4.30
2023-01-15T15:10:00.436Z,4.30
2023-01-15T15:12:48.973Z,4.30
2023-01-15T15:15:57.426Z,4.30
2023-01-15T15:18:39.586Z,4.30
2023-01-15T15:21:17.966Z,4.30
2023-01-15T15:23:56.455Z,4.30
2023-01-15T15:26:30.996Z,4.40
2023-01-15T15:29:25.875Z,4.40
2023-01-15T15:31:58.065Z,4.30
2023-01-15T15:34:32.099Z,4.30
2023-01-15T15:37:03.982Z,4.30
2023-01-15T15:39:59.954Z,4.30
2023-01-15T15:42:58.400Z,4.30
2023-01-15T15:45:47.893Z,4.20
2023-01-15T15:48:51.125Z,4.20
2023-01-15T15:51:41.826Z,4.10
2023-01-15T15:54:30.621Z,4.00
2023-01-15T15:57:02.226Z,3.90
2023-01-15T15:59:45.950Z,3.90
2023-01-15T16:02:31.257Z,3.90
2023-01-15T16:05:19.216Z,3.80
2023-01-15T16:07:46.977Z,3.80
2023-01-15T16:10:31.315Z,3.80
2023-01-15T16:13:02.497Z,3.80
2023-01-15T16:15:36.064Z,3.80
2023-01-15T16:18:04.611Z,3.80
2023-01-15T16:20:33.284Z,3.80
2023-01-15T16:23:03.506Z,3.70
2023-01-15T16:25:37.416Z,3.60
2023-01-15T16:28:05.333Z,3.60
2023-01-15T16:30:33.420Z,3.60
2023-01-15T16:33:07.232Z,3.50
2023-01-15T16:35:37.067Z,3.50
2023-01-15T16:38:05.467Z,3.50
2023-01-15T16:40:40.056Z,3.40
2023-01-15T16:43:14.753Z,3.40
2023-01-15T16:46:05.405Z,3.30
2023-01-15T16:48:46.103Z,3.20
2023-01-15T16:51:45.234Z,3.20
2023-01-15T16:54:31.925Z,3.20
2023-01-15T16:57:27.002Z,3.10
2023-01-15T16:59:57.987Z,3.10
2023-01-15T17:02:29.774Z,3.10
2023-01-15T17:04:56.595Z,3.10
2023-01-15T17:07:39.557Z,3.00
2023-01-15T17:10:21.493Z,3.00
2023-01-15T17:12:48.519Z,2.90
2023-01-15T17:15:15.176Z,2.90
2023-01-15T17:17:47.207Z,2.80
2023-01-15T17:20:15.004Z,2.80
2023-01-15T17:22:45.809Z,2.80
2023-01-15T17:25:34.833Z,2.70
2023-01-15T17:28:03.589Z,2.70
2023-01-15T17:30:32.049Z,2.70
2023-01-15T17:33:05.193Z,2.70
2023-01-15T17:35:38.539Z,2.60
2023-01-15T17:38:07.275Z,2.60
2023-01-15T17:40:34.495Z,2.60
2023-01-15T17:43:01.847Z,2.60
2023-01-15T17:45:31.402Z,2.60
2023-01-15T17:47:58.555Z,2.60
2023-01-15T17:50:25.601Z,2.60
2023-01-15T17:52:52.332Z,2.50
2023-01-15T17:55:41.617Z,2.50
2023-01-15T17:58:31.041Z,2.40
2023-01-15T18:01:17.386Z,2.40
2023-01-15T18:04:08.774Z,2.40
2023-01-15T18:06:36.341Z,2.40
2023-01-15T18:09:06.203Z,2.30
2023-01-15T18:11:33.204Z,2.30
2023-01-15T18:13:59.972Z,2.30
2023-01-15T18:16:28.862Z,2.20
2023-01-15T18:18:55.857Z,2.20
2023-01-15T18:21:23.384Z,2.20
2023-01-15T18:23:50.252Z,2.20
2023-01-15T18:26:17.009Z,2.20
2023-01-15T18:28:46.183Z,2.20
2023-01-15T18:31:13.346Z,2.20
2023-01-15T18:33:40.126Z,2.20
2023-01-15T18:36:10.430Z,2.10
2023-01-15T18:38:40.580Z,2.10
2023-01-15T18:41:33.892Z,2.10
2023-01-15T18:44:26.147Z,2.20
2023-01-15T18:46:58.516Z,2.20
2023-01-15T18:49:25.705Z,2.20
2023-01-15T18:52:11.223Z,2.20
2023-01-15T18:54:38.488Z,2.30
2023-01-15T18:57:05.691Z,2.20
2023-01-15T18:59:33.538Z,2.30
2023-01-15T19:02:00.654Z,2.30
2023-01-15T19:04:27.745Z,2.30
2023-01-15T19:06:54.735Z,2.40
2023-01-15T19:09:24.036Z,2.30
2023-01-15T19:11:52.379Z,2.40
2023-01-15T19:14:39.334Z,2.40
2023-01-15T19:17:25.664Z,2.40
2023-01-15T19:19:52.377Z,2.30
2023-01-15T19:22:37.562Z,2.40
2023-01-15T19:25:04.774Z,2.40
2023-01-15T19:27:31.534Z,2.40
2023-01-15T19:29:59.966Z,2.40
2023-01-15T19:32:26.723Z,2.40
2023-01-15T19:34:53.428Z,2.40
2023-01-15T19:37:22.099Z,2.40
2023-01-15T19:39:48.895Z,2.40
2023-01-15T19:42:34.490Z,2.30
2023-01-15T19:45:19.724Z,2.30
2023-01-15T19:48:05.231Z,2.20
2023-01-15T19:50:44.214Z,2.30
2023-01-15T19:53:12.437Z,2.20
2023-01-15T19:55:44.963Z,2.20
2023-01-15T19:58:14.168Z,2.20
2023-01-15T20:00:44.507Z,2.20
2023-01-15T20:03:12.339Z,2.20
2023-01-15T20:05:42.133Z,2.10
2023-01-15T20:08:13.532Z,2.10
2023-01-15T20:10:43.373Z,2.10
2023-01-15T20:13:33.861Z,2.00
2023-01-15T20:16:08.950Z,2.00
2023-01-15T20:18:36.103Z,2.00
2023-01-15T20:21:04.850Z,2.00
2023-01-15T20:23:32.571Z,2.00
2023-01-15T20:26:10.438Z,1.90
2023-01-15T20:28:42.239Z,1.90
2023-01-15T20:31:18.130Z,1.90
2023-01-15T20:33:45.847Z,1.90
2023-01-15T20:36:12.698Z,1.90
2023-01-15T20:38:39.487Z,1.90
2023-01-15T20:41:29.585Z,1.90
2023-01-15T20:44:14.993Z,1.80
2023-01-15T20:46:44.780Z,1.80
2023-01-15T20:49:30.490Z,1.80
2023-01-15T20:51:57.711Z,1.70
2023-01-15T20:54:26.198Z,1.70
2023-01-15T20:56:53.165Z,1.70
2023-01-15T20:59:20.002Z,1.70
2023-01-15T21:01:46.794Z,1.70
2023-01-15T21:04:13.865Z,1.70
2023-01-15T21:06:40.800Z,1.70
2023-01-15T21:09:07.734Z,1.70
2023-01-15T21:11:34.564Z,1.70
2023-01-15T21:14:01.303Z,1.70
2023-01-15T21:16:28.063Z,1.80
2023-01-15T21:18:54.841Z,1.80
2023-01-15T21:21:22.083Z,1.70
2023-01-15T21:23:48.962Z,1.70
2023-01-15T21:26:17.070Z,1.80
2023-01-15T21:28:44.617Z,1.70
2023-01-15T21:31:13.808Z,1.70
2023-01-15T21:33:40.879Z,1.80
2023-01-15T21:36:14.463Z,1.70
2023-01-15T21:38:41.774Z,1.70
2023-01-15T21:41:11.946Z,1.70
2023-01-15T21:43:58.035Z,1.70
2023-01-15T21:46:27.743Z,1.70
2023-01-15T21:48:59.385Z,1.70
2023-01-15T21:51:26.999Z,1.80
2023-01-15T21:53:54.317Z,1.80
2023-01-15T21:56:21.275Z,1.80
2023-01-15T21:58:47.976Z,1.80
2023-01-15T22:01:18.042Z,1.80
2023-01-15T22:03:45.873Z,1.80
2023-01-15T22:06:12.804Z,1.80
2023-01-15T22:08:39.739Z,1.80
2023-01-15T22:11:09.640Z,1.80
2023-01-15T22:13:37.627Z,1.70
2023-01-15T22:16:04.742Z,1.80
2023-01-15T22:18:33.338Z,1.80
2023-01-15T22:21:06.110Z,1.80
2023-01-15T22:23:34.616Z,1.80
2023-01-15T22:26:01.368Z,1.70
2023-01-15T22:28:28.133Z,1.70
2023-01-15T22:30:54.869Z,1.70
2023-01-15T22:33:21.968Z,1.70
2023-01-15T22:35:59.330Z,1.70
2023-01-15T22:38:26.867Z,1.70
2023-01-15T22:40:53.785Z,1.70
2023-01-15T22:43:20.518Z,1.70
2023-01-15T22:45:47.245Z,1.60
2023-01-15T22:48:14.017Z,1.60
2023-01-15T22:50:40.740Z,1.60
2023-01-15T22:53:07.687Z,1.60
2023-01-15T22:55:34.556Z,1.50
2023-01-15T22:58:01.552Z,1.50
2023-01-15T23:00:28.487Z,1.50
2023-01-15T23:02:55.484Z,1.40
2023-01-15T23:05:24.474Z,1.40
2023-01-15T23:07:51.390Z,1.30
2023-01-15T23:10:18.244Z,1.30
2023-01-15T23:12:44.984Z,1.30
2023-01-15T23:15:13.951Z,1.20
2023-01-15T23:17:41.078Z,1.20
2023-01-15T23:20:09.991Z,1.20
2023-01-15T23:22:36.724Z,0.80
2023-01-15T23:25:03.843Z,1.10
2023-01-15T23:27:30.597Z,1.10
2023-01-15T23:29:57.342Z,1.10
2023-01-15T23:32:24.068Z,1.10
2023-01-15T23:34:50.850Z,1.00
2023-01-15T23:37:17.730Z,1.00
2023-01-15T23:39:44.433Z,0.90
2023-01-15T23:42:29.774Z,0.90
2023-01-15T23:45:15.172Z,0.80
2023-01-15T23:47:41.930Z,0.70
2023-01-15T23:50:09.321Z,0.60
2023-01-15T23:52:36.074Z,0.60
2023-01-15T23:55:02.779Z,0.50
2023-01-15T23:57:29.515Z,0.50
2023-01-15T23:59:56.217Z,0.50
